sensor_id;sensor_type;location;lat;lon;timestamp;P1;durP1;ratioP1;P2;durP2;ratioP2
14116;SDS011;7137;51.436;6.544;2023-04-01T00:02:04;6.47;;;1.50;;
14116;SDS011;7137;51.436;6.544;2023-04-01T00:05:08;3.63;;;1.27;;
14116;SDS011;7137;51.436;6.544;2023-04-01T00:08:11;5.33;;;1.40;;
14116;SDS011;7137;51.436;6.544;2023-04-01T00:11:12;7.13;;;1.63;;
14116;SDS011;7137;51.436;6.544;2023-04-01T00:14:14;4.93;;;1.37;;
14116;SDS011;7137;51.436;6.544;2023-04-01T00:17:16;6.23;;;1.50;;
14116;SDS011;7137;51.436;6.544;2023-04-01T00:20:19;5.37;;;1.57;;
14116;SDS011;7137;51.436;6.544;2023-04-01T00:23:21;4.00;;;1.20;;
14116;SDS011;7137;51.436;6.544;2023-04-01T00:26:24;3.60;;;1.40;;
14116;SDS011;7137;51.436;6.544;2023-04-01T00:29:26;3.03;;;1.27;;
14116;SDS011;7137;51.436;6.544;2023-04-01T00:32:30;4.73;;;1.37;;
14116;SDS011;7137;51.436;6.544;2023-04-01T00:35:33;4.00;;;1.30;;
14116;SDS011;7137;51.436;6.544;2023-04-01T00:38:35;5.13;;;1.50;;
14116;SDS011;7137;51.436;6.544;2023-04-01T00:41:37;4.47;;;1.20;;
14116;SDS011;7137;51.436;6.544;2023-04-01T00:44:39;4.30;;;1.30;;
14116;SDS011;7137;51.436;6.544;2023-04-01T00:47:40;3.80;;;1.10;;
14116;SDS011;7137;51.436;6.544;2023-04-01T00:50:44;2.80;;;1.20;;
14116;SDS011;7137;51.436;6.544;2023-04-01T00:53:49;3.37;;;1.30;;
14116;SDS011;7137;51.436;6.544;2023-04-01T00:56:54;4.60;;;1.30;;
14116;SDS011;7137;51.436;6.544;2023-04-01T00:59:59;5.13;;;1.37;;
14116;SDS011;7137;51.436;6.544;2023-04-01T01:03:01;5.53;;;1.60;;
14116;SDS011;7137;51.436;6.544;2023-04-01T01:06:17;3.03;;;1.07;;
14116;SDS011;7137;51.436;6.544;2023-04-01T01:09:31;4.93;;;1.23;;
14116;SDS011;7137;51.436;6.544;2023-04-01T01:12:44;3.23;;;1.00;;
14116;SDS011;7137;51.436;6.544;2023-04-01T01:15:51;5.27;;;1.33;;
14116;SDS011;7137;51.436;6.544;2023-04-01T01:18:58;3.67;;;1.13;;
14116;SDS011;7137;51.436;6.544;2023-04-01T01:22:14;2.93;;;1.07;;
14116;SDS011;7137;51.436;6.544;2023-04-01T01:25:30;4.17;;;1.20;;
14116;SDS011;7137;51.436;6.544;2023-04-01T01:28:44;5.20;;;1.47;;
14116;SDS011;7137;51.436;6.544;2023-04-01T01:31:55;4.13;;;1.30;;
14116;SDS011;7137;51.436;6.544;2023-04-01T01:35:10;4.90;;;1.40;;
14116;SDS011;7137;51.436;6.544;2023-04-01T01:38:21;3.03;;;1.20;;
14116;SDS011;7137;51.436;6.544;2023-04-01T01:41:25;4.97;;;1.20;;
14116;SDS011;7137;51.436;6.544;2023-04-01T01:44:28;3.77;;;1.27;;
14116;SDS011;7137;51.436;6.544;2023-04-01T01:47:32;3.13;;;1.17;;
14116;SDS011;7137;51.436;6.544;2023-04-01T01:50:37;3.03;;;1.10;;
14116;SDS011;7137;51.436;6.544;2023-04-01T01:53:39;2.87;;;0.97;;
14116;SDS011;7137;51.436;6.544;2023-04-01T02:00:37;3.47;;;0.97;;
14116;SDS011;7137;51.436;6.544;2023-04-01T02:03:42;1.80;;;0.83;;
14116;SDS011;7137;51.436;6.544;2023-04-01T02:06:47;2.20;;;0.80;;
14116;SDS011;7137;51.436;6.544;2023-04-01T02:09:53;4.43;;;1.00;;
14116;SDS011;7137;51.436;6.544;2023-04-01T02:12:56;2.70;;;1.00;;
14116;SDS011;7137;51.436;6.544;2023-04-01T02:16:02;3.60;;;1.00;;
14116;SDS011;7137;51.436;6.544;2023-04-01T02:19:09;4.03;;;1.10;;
14116;SDS011;7137;51.436;6.544;2023-04-01T02:22:16;3.30;;;1.03;;
14116;SDS011;7137;51.436;6.544;2023-04-01T02:25:22;4.33;;;1.10;;
14116;SDS011;7137;51.436;6.544;2023-04-01T02:28:26;2.37;;;1.10;;
14116;SDS011;7137;51.436;6.544;2023-04-01T02:31:29;2.60;;;1.00;;
14116;SDS011;7137;51.436;6.544;2023-04-01T02:34:31;4.23;;;1.27;;
14116;SDS011;7137;51.436;6.544;2023-04-01T02:37:35;2.70;;;0.80;;
14116;SDS011;7137;51.436;6.544;2023-04-01T02:40:41;2.20;;;0.90;;
14116;SDS011;7137;51.436;6.544;2023-04-01T02:43:46;2.53;;;1.20;;
14116;SDS011;7137;51.436;6.544;2023-04-01T02:46:48;2.60;;;1.50;;
14116;SDS011;7137;51.436;6.544;2023-04-01T02:49:49;2.93;;;1.70;;
14116;SDS011;7137;51.436;6.544;2023-04-01T02:52:52;2.57;;;1.57;;
14116;SDS011;7137;51.436;6.544;2023-04-01T02:55:54;2.60;;;1.50;;
14116;SDS011;7137;51.436;6.544;2023-04-01T02:58:56;3.97;;;1.70;;
14116;SDS011;7137;51.436;6.544;2023-04-01T03:01:57;3.57;;;1.47;;
14116;SDS011;7137;51.436;6.544;2023-04-01T03:04:59;4.23;;;1.50;;
14116;SDS011;7137;51.436;6.544;2023-04-01T03:08:02;3.67;;;1.50;;
14116;SDS011;7137;51.436;6.544;2023-04-01T03:11:03;4.07;;;1.63;;
14116;SDS011;7137;51.436;6.544;2023-04-01T03:14:05;3.23;;;1.80;;
14116;SDS011;7137;51.436;6.544;2023-04-01T03:17:07;4.53;;;2.10;;
14116;SDS011;7137;51.436;6.544;2023-04-01T03:20:09;3.93;;;2.47;;
14116;SDS011;7137;51.436;6.544;2023-04-01T03:23:13;4.97;;;2.80;;
14116;SDS011;7137;51.436;6.544;2023-04-01T03:26:17;4.67;;;2.93;;
14116;SDS011;7137;51.436;6.544;2023-04-01T03:29:19;4.60;;;2.97;;
14116;SDS011;7137;51.436;6.544;2023-04-01T03:32:20;6.47;;;2.73;;
14116;SDS011;7137;51.436;6.544;2023-04-01T03:35:21;4.20;;;2.80;;
14116;SDS011;7137;51.436;6.544;2023-04-01T03:38:24;4.93;;;3.00;;
14116;SDS011;7137;51.436;6.544;2023-04-01T03:41:27;4.57;;;2.73;;
14116;SDS011;7137;51.436;6.544;2023-04-01T03:44:30;3.93;;;2.67;;
14116;SDS011;7137;51.436;6.544;2023-04-01T03:47:32;4.57;;;2.67;;
14116;SDS011;7137;51.436;6.544;2023-04-01T03:50:34;5.80;;;3.30;;
14116;SDS011;7137;51.436;6.544;2023-04-01T03:53:38;4.20;;;3.07;;
14116;SDS011;7137;51.436;6.544;2023-04-01T03:56:39;5.87;;;3.20;;
14116;SDS011;7137;51.436;6.544;2023-04-01T03:59:41;4.30;;;3.20;;
14116;SDS011;7137;51.436;6.544;2023-04-01T04:02:44;5.83;;;3.70;;
14116;SDS011;7137;51.436;6.544;2023-04-01T04:05:46;5.30;;;3.70;;
14116;SDS011;7137;51.436;6.544;2023-04-01T04:08:49;4.50;;;3.20;;
14116;SDS011;7137;51.436;6.544;2023-04-01T04:11:51;5.00;;;3.10;;
14116;SDS011;7137;51.436;6.544;2023-04-01T04:14:52;4.70;;;3.40;;
14116;SDS011;7137;51.436;6.544;2023-04-01T04:17:54;5.47;;;3.30;;
14116;SDS011;7137;51.436;6.544;2023-04-01T04:20:56;6.47;;;3.67;;
14116;SDS011;7137;51.436;6.544;2023-04-01T04:23:59;5.27;;;3.43;;
14116;SDS011;7137;51.436;6.544;2023-04-01T04:27:03;5.97;;;3.43;;
14116;SDS011;7137;51.436;6.544;2023-04-01T04:30:05;4.40;;;3.07;;
14116;SDS011;7137;51.436;6.544;2023-04-01T04:33:08;4.70;;;3.03;;
14116;SDS011;7137;51.436;6.544;2023-04-01T04:36:09;5.30;;;2.80;;
14116;SDS011;7137;51.436;6.544;2023-04-01T04:39:12;4.63;;;2.67;;
14116;SDS011;7137;51.436;6.544;2023-04-01T04:42:15;4.63;;;3.13;;
14116;SDS011;7137;51.436;6.544;2023-04-01T04:45:16;4.00;;;2.90;;
14116;SDS011;7137;51.436;6.544;2023-04-01T04:48:18;4.27;;;2.80;;
14116;SDS011;7137;51.436;6.544;2023-04-01T04:51:20;4.20;;;2.93;;
14116;SDS011;7137;51.436;6.544;2023-04-01T04:54:23;5.17;;;2.83;;
14116;SDS011;7137;51.436;6.544;2023-04-01T04:57:25;4.30;;;3.00;;
14116;SDS011;7137;51.436;6.544;2023-04-01T05:00:27;4.60;;;2.30;;
14116;SDS011;7137;51.436;6.544;2023-04-01T05:03:28;5.03;;;2.70;;
14116;SDS011;7137;51.436;6.544;2023-04-01T05:06:30;4.53;;;2.43;;
14116;SDS011;7137;51.436;6.544;2023-04-01T05:09:33;4.57;;;2.60;;
14116;SDS011;7137;51.436;6.544;2023-04-01T05:12:34;4.77;;;2.80;;
14116;SDS011;7137;51.436;6.544;2023-04-01T05:15:38;4.60;;;3.40;;
14116;SDS011;7137;51.436;6.544;2023-04-01T05:18:40;5.63;;;3.37;;
14116;SDS011;7137;51.436;6.544;2023-04-01T05:21:41;4.80;;;3.30;;
14116;SDS011;7137;51.436;6.544;2023-04-01T05:24:44;5.60;;;4.40;;
14116;SDS011;7137;51.436;6.544;2023-04-01T05:27:46;6.30;;;4.50;;
14116;SDS011;7137;51.436;6.544;2023-04-01T05:30:48;6.10;;;4.80;;
14116;SDS011;7137;51.436;6.544;2023-04-01T05:33:49;6.47;;;5.20;;
14116;SDS011;7137;51.436;6.544;2023-04-01T05:36:51;6.90;;;5.63;;
14116;SDS011;7137;51.436;6.544;2023-04-01T05:39:54;6.53;;;5.83;;
14116;SDS011;7137;51.436;6.544;2023-04-01T05:42:56;7.97;;;6.20;;
14116;SDS011;7137;51.436;6.544;2023-04-01T05:45:57;7.67;;;6.50;;
14116;SDS011;7137;51.436;6.544;2023-04-01T05:48:59;8.87;;;6.73;;
14116;SDS011;7137;51.436;6.544;2023-04-01T05:52:00;7.83;;;6.97;;
14116;SDS011;7137;51.436;6.544;2023-04-01T05:55:05;7.80;;;6.37;;
14116;SDS011;7137;51.436;6.544;2023-04-01T05:58:06;7.63;;;6.83;;
14116;SDS011;7137;51.436;6.544;2023-04-01T06:01:09;8.93;;;6.97;;
14116;SDS011;7137;51.436;6.544;2023-04-01T06:04:13;8.37;;;7.47;;
14116;SDS011;7137;51.436;6.544;2023-04-01T06:07:16;8.53;;;7.63;;
14116;SDS011;7137;51.436;6.544;2023-04-01T06:10:21;8.50;;;7.50;;
14116;SDS011;7137;51.436;6.544;2023-04-01T06:13:26;8.50;;;7.60;;
14116;SDS011;7137;51.436;6.544;2023-04-01T06:16:45;8.33;;;7.43;;
14116;SDS011;7137;51.436;6.544;2023-04-01T06:20:00;7.87;;;6.97;;
14116;SDS011;7137;51.436;6.544;2023-04-01T06:23:15;9.97;;;7.43;;
14116;SDS011;7137;51.436;6.544;2023-04-01T06:26:41;8.13;;;7.30;;
14116;SDS011;7137;51.436;6.544;2023-04-01T06:33:23;8.10;;;7.30;;
14116;SDS011;7137;51.436;6.544;2023-04-01T06:36:43;9.17;;;7.70;;
14116;SDS011;7137;51.436;6.544;2023-04-01T06:40:16;9.10;;;8.20;;
14116;SDS011;7137;51.436;6.544;2023-04-01T06:43:30;8.40;;;7.50;;
14116;SDS011;7137;51.436;6.544;2023-04-01T06:46:41;9.77;;;6.93;;
14116;SDS011;7137;51.436;6.544;2023-04-01T06:49:48;7.50;;;6.80;;
14116;SDS011;7137;51.436;6.544;2023-04-01T06:52:59;8.63;;;7.43;;
14116;SDS011;7137;51.436;6.544;2023-04-01T06:56:08;7.80;;;7.03;;
14116;SDS011;7137;51.436;6.544;2023-04-01T06:59:13;7.93;;;7.20;;
14116;SDS011;7137;51.436;6.544;2023-04-01T07:02:21;7.90;;;7.10;;
14116;SDS011;7137;51.436;6.544;2023-04-01T07:05:30;7.73;;;7.00;;
14116;SDS011;7137;51.436;6.544;2023-04-01T07:08:34;8.37;;;7.30;;
14116;SDS011;7137;51.436;6.544;2023-04-01T07:11:39;7.40;;;6.70;;
14116;SDS011;7137;51.436;6.544;2023-04-01T07:14:42;7.40;;;6.70;;
14116;SDS011;7137;51.436;6.544;2023-04-01T07:17:46;7.07;;;6.37;;
14116;SDS011;7137;51.436;6.544;2023-04-01T07:20:51;6.67;;;6.00;;
14116;SDS011;7137;51.436;6.544;2023-04-01T07:23:53;6.80;;;6.10;;
14116;SDS011;7137;51.436;6.544;2023-04-01T07:26:59;7.13;;;5.97;;
14116;SDS011;7137;51.436;6.544;2023-04-01T07:30:03;6.87;;;5.77;;
14116;SDS011;7137;51.436;6.544;2023-04-01T07:33:14;6.37;;;5.77;;
14116;SDS011;7137;51.436;6.544;2023-04-01T07:36:21;6.70;;;5.80;;
14116;SDS011;7137;51.436;6.544;2023-04-01T07:39:35;7.17;;;6.47;;
14116;SDS011;7137;51.436;6.544;2023-04-01T07:42:48;8.33;;;6.13;;
14116;SDS011;7137;51.436;6.544;2023-04-01T07:46:16;8.30;;;6.80;;
14116;SDS011;7137;51.436;6.544;2023-04-01T07:49:31;7.90;;;6.50;;
14116;SDS011;7137;51.436;6.544;2023-04-01T07:52:44;7.43;;;6.20;;
14116;SDS011;7137;51.436;6.544;2023-04-01T07:55:57;7.73;;;6.70;;
14116;SDS011;7137;51.436;6.544;2023-04-01T07:59:05;6.80;;;6.00;;
14116;SDS011;7137;51.436;6.544;2023-04-01T08:02:19;6.80;;;5.83;;
14116;SDS011;7137;51.436;6.544;2023-04-01T08:05:32;6.77;;;5.60;;
14116;SDS011;7137;51.436;6.544;2023-04-01T08:08:45;6.37;;;5.10;;
14116;SDS011;7137;51.436;6.544;2023-04-01T08:11:58;6.20;;;4.90;;
14116;SDS011;7137;51.436;6.544;2023-04-01T08:15:08;6.13;;;5.00;;
14116;SDS011;7137;51.436;6.544;2023-04-01T08:18:19;7.27;;;5.30;;
14116;SDS011;7137;51.436;6.544;2023-04-01T08:21:35;7.80;;;5.30;;
14116;SDS011;7137;51.436;6.544;2023-04-01T08:24:42;7.17;;;5.73;;
14116;SDS011;7137;51.436;6.544;2023-04-01T08:27:46;6.40;;;5.27;;
14116;SDS011;7137;51.436;6.544;2023-04-01T08:30:53;6.83;;;5.60;;
14116;SDS011;7137;51.436;6.544;2023-04-01T08:34:00;6.60;;;5.80;;
14116;SDS011;7137;51.436;6.544;2023-04-01T08:37:07;6.70;;;5.97;;
14116;SDS011;7137;51.436;6.544;2023-04-01T08:40:17;7.10;;;5.63;;
14116;SDS011;7137;51.436;6.544;2023-04-01T08:47:14;8.40;;;6.20;;
14116;SDS011;7137;51.436;6.544;2023-04-01T08:50:37;7.67;;;6.87;;
14116;SDS011;7137;51.436;6.544;2023-04-01T08:54:05;9.43;;;7.87;;
14116;SDS011;7137;51.436;6.544;2023-04-01T08:57:24;8.77;;;7.67;;
14116;SDS011;7137;51.436;6.544;2023-04-01T09:00:40;8.80;;;7.43;;
14116;SDS011;7137;51.436;6.544;2023-04-01T09:03:54;8.63;;;7.67;;
14116;SDS011;7137;51.436;6.544;2023-04-01T09:07:14;8.87;;;7.67;;
14116;SDS011;7137;51.436;6.544;2023-04-01T09:10:42;8.57;;;7.63;;
14116;SDS011;7137;51.436;6.544;2023-04-01T09:14:07;9.23;;;7.70;;
14116;SDS011;7137;51.436;6.544;2023-04-01T09:17:38;10.17;;;8.37;;
14116;SDS011;7137;51.436;6.544;2023-04-01T09:20:58;8.60;;;7.80;;
14116;SDS011;7137;51.436;6.544;2023-04-01T09:24:20;9.07;;;8.17;;
14116;SDS011;7137;51.436;6.544;2023-04-01T09:27:37;10.37;;;8.40;;
14116;SDS011;7137;51.436;6.544;2023-04-01T09:31:05;10.87;;;8.90;;
14116;SDS011;7137;51.436;6.544;2023-04-01T09:34:25;10.20;;;9.17;;
14116;SDS011;7137;51.436;6.544;2023-04-01T09:37:41;10.83;;;9.73;;
14116;SDS011;7137;51.436;6.544;2023-04-01T09:40:55;11.47;;;10.37;;
14116;SDS011;7137;51.436;6.544;2023-04-01T09:44:00;13.17;;;10.83;;
14116;SDS011;7137;51.436;6.544;2023-04-01T09:47:09;12.27;;;11.07;;
14116;SDS011;7137;51.436;6.544;2023-04-01T09:50:31;11.83;;;10.63;;
14116;SDS011;7137;51.436;6.544;2023-04-01T09:53:48;13.13;;;10.93;;
14116;SDS011;7137;51.436;6.544;2023-04-01T10:08:11;11.30;;;10.20;;
14116;SDS011;7137;51.436;6.544;2023-04-01T10:15:22;11.80;;;10.60;;
14116;SDS011;7137;51.436;6.544;2023-04-01T10:18:41;13.20;;;11.20;;
14116;SDS011;7137;51.436;6.544;2023-04-01T10:22:04;11.70;;;10.50;;
14116;SDS011;7137;51.436;6.544;2023-04-01T10:29:22;13.07;;;11.37;;
14116;SDS011;7137;51.436;6.544;2023-04-01T10:32:58;13.30;;;11.90;;
14116;SDS011;7137;51.436;6.544;2023-04-01T10:36:32;15.17;;;12.47;;
14116;SDS011;7137;51.436;6.544;2023-04-01T10:40:15;16.70;;;12.53;;
14116;SDS011;7137;51.436;6.544;2023-04-01T10:43:45;14.27;;;12.77;;
14116;SDS011;7137;51.436;6.544;2023-04-01T10:47:13;16.10;;;14.33;;
14116;SDS011;7137;51.436;6.544;2023-04-01T10:50:42;16.03;;;13.17;;
14116;SDS011;7137;51.436;6.544;2023-04-01T10:54:20;15.70;;;13.10;;
14116;SDS011;7137;51.436;6.544;2023-04-01T10:57:39;13.87;;;12.37;;
14116;SDS011;7137;51.436;6.544;2023-04-01T11:01:11;15.83;;;12.77;;
14116;SDS011;7137;51.436;6.544;2023-04-01T11:04:51;14.40;;;12.80;;
14116;SDS011;7137;51.436;6.544;2023-04-01T11:12:03;14.87;;;13.37;;
14116;SDS011;7137;51.436;6.544;2023-04-01T11:19:02;14.87;;;13.40;;
14116;SDS011;7137;51.436;6.544;2023-04-01T11:22:41;15.23;;;13.37;;
14116;SDS011;7137;51.436;6.544;2023-04-01T11:26:07;13.83;;;12.33;;
14116;SDS011;7137;51.436;6.544;2023-04-01T11:32:46;14.03;;;12.63;;
14116;SDS011;7137;51.436;6.544;2023-04-01T11:36:00;13.17;;;11.83;;
14116;SDS011;7137;51.436;6.544;2023-04-01T11:39:17;12.87;;;11.57;;
14116;SDS011;7137;51.436;6.544;2023-04-01T11:42:30;13.80;;;12.30;;
14116;SDS011;7137;51.436;6.544;2023-04-01T11:45:39;12.40;;;11.20;;
14116;SDS011;7137;51.436;6.544;2023-04-01T11:48:50;13.50;;;12.10;;
14116;SDS011;7137;51.436;6.544;2023-04-01T11:52:13;13.17;;;11.80;;
14116;SDS011;7137;51.436;6.544;2023-04-01T11:55:24;12.00;;;10.80;;
14116;SDS011;7137;51.436;6.544;2023-04-01T11:58:51;11.73;;;10.63;;
14116;SDS011;7137;51.436;6.544;2023-04-01T12:02:10;11.50;;;10.30;;
14116;SDS011;7137;51.436;6.544;2023-04-01T12:08:42;10.87;;;9.77;;
14116;SDS011;7137;51.436;6.544;2023-04-01T12:11:56;11.03;;;9.30;;
14116;SDS011;7137;51.436;6.544;2023-04-01T12:15:15;9.57;;;8.33;;
14116;SDS011;7137;51.436;6.544;2023-04-01T12:18:27;10.10;;;9.00;;
14116;SDS011;7137;51.436;6.544;2023-04-01T12:21:38;10.47;;;9.40;;
14116;SDS011;7137;51.436;6.544;2023-04-01T12:24:47;11.47;;;9.87;;
14116;SDS011;7137;51.436;6.544;2023-04-01T12:27:53;10.50;;;9.37;;
14116;SDS011;7137;51.436;6.544;2023-04-01T12:31:05;10.70;;;9.60;;
14116;SDS011;7137;51.436;6.544;2023-04-01T12:38:06;10.10;;;9.10;;
14116;SDS011;7137;51.436;6.544;2023-04-01T12:41:22;10.80;;;9.67;;
14116;SDS011;7137;51.436;6.544;2023-04-01T12:44:31;11.57;;;10.37;;
14116;SDS011;7137;51.436;6.544;2023-04-01T12:47:48;12.90;;;10.50;;
14116;SDS011;7137;51.436;6.544;2023-04-01T12:51:05;11.27;;;10.13;;
14116;SDS011;7137;51.436;6.544;2023-04-01T12:58:18;11.00;;;9.33;;
14116;SDS011;7137;51.436;6.544;2023-04-01T13:01:46;11.23;;;10.00;;
14116;SDS011;7137;51.436;6.544;2023-04-01T13:08:41;10.90;;;9.80;;
14116;SDS011;7137;51.436;6.544;2023-04-01T13:11:54;11.47;;;9.60;;
14116;SDS011;7137;51.436;6.544;2023-04-01T13:18:32;10.63;;;9.53;;
14116;SDS011;7137;51.436;6.544;2023-04-01T13:21:44;12.33;;;9.53;;
14116;SDS011;7137;51.436;6.544;2023-04-01T13:24:58;11.10;;;9.77;;
14116;SDS011;7137;51.436;6.544;2023-04-01T13:28:11;12.50;;;10.53;;
14116;SDS011;7137;51.436;6.544;2023-04-01T13:31:25;11.90;;;10.70;;
14116;SDS011;7137;51.436;6.544;2023-04-01T13:34:41;11.80;;;10.60;;
14116;SDS011;7137;51.436;6.544;2023-04-01T13:37:52;12.00;;;10.70;;
14116;SDS011;7137;51.436;6.544;2023-04-01T13:41:05;12.33;;;10.77;;
14116;SDS011;7137;51.436;6.544;2023-04-01T13:44:22;10.73;;;9.53;;
14116;SDS011;7137;51.436;6.544;2023-04-01T13:47:49;10.83;;;9.73;;
14116;SDS011;7137;51.436;6.544;2023-04-01T13:51:26;10.97;;;9.60;;
14116;SDS011;7137;51.436;6.544;2023-04-01T13:54:45;10.87;;;9.27;;
14116;SDS011;7137;51.436;6.544;2023-04-01T13:58:04;12.53;;;9.83;;
14116;SDS011;7137;51.436;6.544;2023-04-01T14:01:23;10.90;;;9.53;;
14116;SDS011;7137;51.436;6.544;2023-04-01T14:04:36;11.07;;;9.87;;
14116;SDS011;7137;51.436;6.544;2023-04-01T14:07:50;11.33;;;9.60;;
14116;SDS011;7137;51.436;6.544;2023-04-01T14:11:07;9.63;;;8.60;;
14116;SDS011;7137;51.436;6.544;2023-04-01T14:14:18;9.27;;;8.27;;
14116;SDS011;7137;51.436;6.544;2023-04-01T14:17:30;9.53;;;8.53;;
14116;SDS011;7137;51.436;6.544;2023-04-01T14:20:48;8.70;;;7.27;;
14116;SDS011;7137;51.436;6.544;2023-04-01T14:24:04;8.37;;;7.47;;
14116;SDS011;7137;51.436;6.544;2023-04-01T14:27:25;8.47;;;7.67;;
14116;SDS011;7137;51.436;6.544;2023-04-01T14:30:43;8.87;;;7.97;;
14116;SDS011;7137;51.436;6.544;2023-04-01T14:34:03;9.73;;;8.73;;
14116;SDS011;7137;51.436;6.544;2023-04-01T14:37:25;8.93;;;7.90;;
14116;SDS011;7137;51.436;6.544;2023-04-01T14:40:49;9.00;;;7.77;;
14116;SDS011;7137;51.436;6.544;2023-04-01T14:44:04;9.03;;;7.47;;
14116;SDS011;7137;51.436;6.544;2023-04-01T14:47:23;8.17;;;7.37;;
14116;SDS011;7137;51.436;6.544;2023-04-01T14:50:49;8.30;;;7.47;;
14116;SDS011;7137;51.436;6.544;2023-04-01T14:53:54;8.77;;;7.73;;
14116;SDS011;7137;51.436;6.544;2023-04-01T14:57:04;8.03;;;7.23;;
14116;SDS011;7137;51.436;6.544;2023-04-01T15:00:13;7.73;;;6.93;;
14116;SDS011;7137;51.436;6.544;2023-04-01T15:03:19;7.50;;;6.70;;
14116;SDS011;7137;51.436;6.544;2023-04-01T15:06:30;7.30;;;6.40;;
14116;SDS011;7137;51.436;6.544;2023-04-01T15:09:57;7.27;;;5.90;;
14116;SDS011;7137;51.436;6.544;2023-04-01T15:13:10;6.67;;;5.27;;
14116;SDS011;7137;51.436;6.544;2023-04-01T15:16:18;7.30;;;6.23;;
14116;SDS011;7137;51.436;6.544;2023-04-01T15:19:29;8.43;;;6.03;;
14116;SDS011;7137;51.436;6.544;2023-04-01T15:26:17;7.77;;;6.40;;
14116;SDS011;7137;51.436;6.544;2023-04-01T15:29:34;7.67;;;6.30;;
14116;SDS011;7137;51.436;6.544;2023-04-01T15:32:52;7.70;;;6.53;;
14116;SDS011;7137;51.436;6.544;2023-04-01T15:36:03;8.13;;;7.33;;
14116;SDS011;7137;51.436;6.544;2023-04-01T15:39:16;7.50;;;6.70;;
14116;SDS011;7137;51.436;6.544;2023-04-01T15:42:32;7.77;;;6.67;;
14116;SDS011;7137;51.436;6.544;2023-04-01T15:45:47;6.90;;;6.20;;
14116;SDS011;7137;51.436;6.544;2023-04-01T15:49:02;6.43;;;5.80;;
14116;SDS011;7137;51.436;6.544;2023-04-01T15:52:11;7.20;;;6.10;;
14116;SDS011;7137;51.436;6.544;2023-04-01T15:55:22;6.60;;;5.90;;
14116;SDS011;7137;51.436;6.544;2023-04-01T15:58:32;6.50;;;5.50;;
14116;SDS011;7137;51.436;6.544;2023-04-01T16:01:48;8.13;;;6.40;;
14116;SDS011;7137;51.436;6.544;2023-04-01T16:05:00;8.00;;;7.13;;
14116;SDS011;7137;51.436;6.544;2023-04-01T16:08:21;9.33;;;7.70;;
14116;SDS011;7137;51.436;6.544;2023-04-01T16:11:39;11.83;;;10.03;;
14116;SDS011;7137;51.436;6.544;2023-04-01T16:14:53;11.10;;;9.80;;
14116;SDS011;7137;51.436;6.544;2023-04-01T16:18:09;13.50;;;11.37;;
14116;SDS011;7137;51.436;6.544;2023-04-01T16:21:33;11.60;;;10.20;;
14116;SDS011;7137;51.436;6.544;2023-04-01T16:24:38;10.33;;;9.27;;
14116;SDS011;7137;51.436;6.544;2023-04-01T16:27:49;11.10;;;10.00;;
14116;SDS011;7137;51.436;6.544;2023-04-01T16:30:56;10.80;;;9.70;;
14116;SDS011;7137;51.436;6.544;2023-04-01T16:34:01;11.20;;;10.10;;
14116;SDS011;7137;51.436;6.544;2023-04-01T16:37:09;10.80;;;9.70;;
14116;SDS011;7137;51.436;6.544;2023-04-01T16:40:16;10.93;;;9.87;;
14116;SDS011;7137;51.436;6.544;2023-04-01T16:43:28;11.10;;;10.00;;
14116;SDS011;7137;51.436;6.544;2023-04-01T16:46:38;11.27;;;10.17;;
14116;SDS011;7137;51.436;6.544;2023-04-01T16:49:42;10.60;;;9.50;;
14116;SDS011;7137;51.436;6.544;2023-04-01T16:52:54;12.00;;;10.90;;
14116;SDS011;7137;51.436;6.544;2023-04-01T16:56:03;11.40;;;10.30;;
14116;SDS011;7137;51.436;6.544;2023-04-01T16:59:16;10.90;;;9.80;;
14116;SDS011;7137;51.436;6.544;2023-04-01T17:02:23;11.07;;;9.97;;
14116;SDS011;7137;51.436;6.544;2023-04-01T17:05:40;11.63;;;10.53;;
14116;SDS011;7137;51.436;6.544;2023-04-01T17:08:54;11.00;;;9.90;;
14116;SDS011;7137;51.436;6.544;2023-04-01T17:12:05;11.23;;;10.07;;
14116;SDS011;7137;51.436;6.544;2023-04-01T17:15:17;11.43;;;10.23;;
14116;SDS011;7137;51.436;6.544;2023-04-01T17:18:32;13.43;;;12.13;;
14116;SDS011;7137;51.436;6.544;2023-04-01T17:21:46;12.27;;;11.07;;
14116;SDS011;7137;51.436;6.544;2023-04-01T17:25:00;13.17;;;11.87;;
14116;SDS011;7137;51.436;6.544;2023-04-01T17:28:13;13.03;;;11.73;;
14116;SDS011;7137;51.436;6.544;2023-04-01T17:34:56;13.33;;;12.03;;
14116;SDS011;7137;51.436;6.544;2023-04-01T17:38:07;13.63;;;12.23;;
14116;SDS011;7137;51.436;6.544;2023-04-01T17:41:24;14.17;;;12.77;;
14116;SDS011;7137;51.436;6.544;2023-04-01T17:44:33;14.23;;;12.80;;
14116;SDS011;7137;51.436;6.544;2023-04-01T17:47:52;14.37;;;12.87;;
14116;SDS011;7137;51.436;6.544;2023-04-01T17:51:10;14.27;;;12.87;;
14116;SDS011;7137;51.436;6.544;2023-04-01T17:54:21;14.90;;;13.40;;
14116;SDS011;7137;51.436;6.544;2023-04-01T17:57:32;15.10;;;13.60;;
14116;SDS011;7137;51.436;6.544;2023-04-01T18:00:47;14.77;;;13.27;;
14116;SDS011;7137;51.436;6.544;2023-04-01T18:04:07;15.97;;;14.37;;
14116;SDS011;7137;51.436;6.544;2023-04-01T18:07:38;15.60;;;14.10;;
14116;SDS011;7137;51.436;6.544;2023-04-01T18:10:55;14.43;;;13.10;;
14116;SDS011;7137;51.436;6.544;2023-04-01T18:14:16;15.33;;;13.93;;
14116;SDS011;7137;51.436;6.544;2023-04-01T18:17:47;16.27;;;14.67;;
14116;SDS011;7137;51.436;6.544;2023-04-01T18:21:14;15.10;;;13.63;;
14116;SDS011;7137;51.436;6.544;2023-04-01T18:24:26;15.93;;;14.33;;
14116;SDS011;7137;51.436;6.544;2023-04-01T18:27:33;15.80;;;14.20;;
14116;SDS011;7137;51.436;6.544;2023-04-01T18:30:39;15.87;;;14.27;;
14116;SDS011;7137;51.436;6.544;2023-04-01T18:33:44;16.90;;;15.17;;
14116;SDS011;7137;51.436;6.544;2023-04-01T18:36:59;16.43;;;14.83;;
14116;SDS011;7137;51.436;6.544;2023-04-01T18:40:30;16.40;;;14.70;;
14116;SDS011;7137;51.436;6.544;2023-04-01T18:43:36;16.00;;;14.40;;
14116;SDS011;7137;51.436;6.544;2023-04-01T18:46:47;16.93;;;15.23;;
14116;SDS011;7137;51.436;6.544;2023-04-01T18:49:55;17.13;;;15.43;;
14116;SDS011;7137;51.436;6.544;2023-04-01T18:53:12;16.77;;;15.10;;
14116;SDS011;7137;51.436;6.544;2023-04-01T18:56:23;17.90;;;16.10;;
14116;SDS011;7137;51.436;6.544;2023-04-01T18:59:31;16.30;;;14.60;;
14116;SDS011;7137;51.436;6.544;2023-04-01T19:02:38;16.33;;;14.73;;
14116;SDS011;7137;51.436;6.544;2023-04-01T19:05:46;17.03;;;15.43;;
14116;SDS011;7137;51.436;6.544;2023-04-01T19:08:53;11.97;;;10.60;;
14116;SDS011;7137;51.436;6.544;2023-04-01T19:12:07;10.20;;;9.10;;
14116;SDS011;7137;51.436;6.544;2023-04-01T19:15:27;9.13;;;7.47;;
14116;SDS011;7137;51.436;6.544;2023-04-01T19:18:44;6.60;;;5.90;;
14116;SDS011;7137;51.436;6.544;2023-04-01T19:22:02;6.60;;;5.43;;
14116;SDS011;7137;51.436;6.544;2023-04-01T19:25:33;7.10;;;5.20;;
14116;SDS011;7137;51.436;6.544;2023-04-01T19:28:40;5.83;;;5.20;;
14116;SDS011;7137;51.436;6.544;2023-04-01T19:31:55;5.80;;;5.10;;
14116;SDS011;7137;51.436;6.544;2023-04-01T19:35:09;5.07;;;4.53;;
14116;SDS011;7137;51.436;6.544;2023-04-01T19:38:22;5.43;;;4.43;;
14116;SDS011;7137;51.436;6.544;2023-04-01T19:41:32;5.40;;;4.70;;
14116;SDS011;7137;51.436;6.544;2023-04-01T19:44:44;4.70;;;4.20;;
14116;SDS011;7137;51.436;6.544;2023-04-01T19:47:59;4.93;;;4.23;;
14116;SDS011;7137;51.436;6.544;2023-04-01T19:51:07;5.50;;;4.80;;
14116;SDS011;7137;51.436;6.544;2023-04-01T19:54:13;6.50;;;4.83;;
14116;SDS011;7137;51.436;6.544;2023-04-01T19:57:30;5.50;;;4.80;;
14116;SDS011;7137;51.436;6.544;2023-04-01T20:00:39;4.87;;;4.37;;
14116;SDS011;7137;51.436;6.544;2023-04-01T20:03:45;5.53;;;4.40;;
14116;SDS011;7137;51.436;6.544;2023-04-01T20:06:51;4.83;;;3.90;;
14116;SDS011;7137;51.436;6.544;2023-04-01T20:10:00;5.57;;;4.10;;
14116;SDS011;7137;51.436;6.544;2023-04-01T20:13:11;5.07;;;4.10;;
14116;SDS011;7137;51.436;6.544;2023-04-01T20:16:23;4.60;;;3.90;;
14116;SDS011;7137;51.436;6.544;2023-04-01T20:19:48;4.80;;;3.77;;
14116;SDS011;7137;51.436;6.544;2023-04-01T20:23:04;4.50;;;3.63;;
14116;SDS011;7137;51.436;6.544;2023-04-01T20:26:20;4.70;;;3.53;;